Time;durP1;ratioP1;P1;durP2;ratioP2;P2;SDS_P1;SDS_P2;PMS_P1;PMS_P2;Temp;Humidity;BMP_temperature;BMP_pressure;BME280_temperature;BME280_humidity;BME280_pressure;Samples;Min_cycle;Max_cycle;Signal;HPM_P1;HPM_P2
2023/11/09 00:00:37;;;;;;;9.30;7.80;;;;;;;5.66;100.00;98972.02;109640;1249;61850;-68
2023/11/09 00:03:04;;;;;;;8.40;7.50;;;;;;;5.66;100.00;98972.23;109665;1254;59168;-68
2023/11/09 00:05:31;;;;;;;7.80;7.10;;;;;;;5.64;100.00;98972.23;109579;1251;73826;-68
2023/11/09 00:07:57;;;;;;;9.80;6.90;;;;;;;5.64;100.00;98975.56;109685;1251;66440;-68
2023/11/09 00:10:24;;;;;;;8.30;7.50;;;;;;;5.63;100.00;98976.98;109613;1251;71778;-69
2023/11/09 00:12:53;;;;;;;7.60;6.70;;;;;;;5.64;100.00;98974.36;109598;1250;58557;-69
2023/11/09 00:15:24;;;;;;;8.10;7.10;;;;;;;5.63;100.00;98973.48;109662;1250;58896;-69
2023/11/09 00:17:51;;;;;;;8.30;7.50;;;;;;;5.61;100.00;98979.30;109675;1250;74065;-69
2023/11/09 00:20:19;;;;;;;7.30;6.50;;;;;;;5.61;100.00;98979.83;109659;1251;66800;-69
2023/11/09 00:22:46;;;;;;;7.90;7.10;;;;;;;5.63;100.00;98982.81;109630;1251;71233;-69
2023/11/09 00:25:17;;;;;;;8.10;6.90;;;;;;;5.69;100.00;98984.55;109594;1251;61876;-69
2023/11/09 00:27:44;;;;;;;7.60;6.40;;;;;;;5.75;100.00;98983.36;109648;1251;60248;-69
2023/11/09 00:30:10;;;;;;;7.70;6.80;;;;;;;5.82;100.00;98989.95;109606;1251;58401;-69
2023/11/09 00:32:37;;;;;;;7.70;6.20;;;;;;;5.86;100.00;98988.88;109532;1251;67773;-69
2023/11/09 00:35:08;;;;;;;6.90;6.10;;;;;;;5.88;100.00;98989.70;109564;1251;71458;-69
2023/11/09 00:37:37;;;;;;;8.00;7.20;;;;;;;5.93;100.00;98986.94;109629;1251;58712;-69
2023/11/09 00:40:09;;;;;;;9.60;6.70;;;;;;;5.94;100.00;98987.16;109660;1251;58819;-69
2023/11/09 00:42:37;;;;;;;7.00;6.30;;;;;;;5.95;100.00;98990.41;109676;1251;73817;-69
2023/11/09 00:45:03;;;;;;;7.60;6.00;;;;;;;5.94;100.00;98992.44;109615;1251;66693;-69
2023/11/09 00:47:30;;;;;;;8.00;6.20;;;;;;;5.93;100.00;98987.79;109590;1251;70604;-69
2023/11/09 00:49:57;;;;;;;9.60;6.50;;;;;;;5.91;100.00;98988.54;109643;1251;61852;-69
2023/11/09 00:52:24;;;;;;;7.50;6.00;;;;;;;5.88;100.00;98987.94;109568;1253;59107;-69
2023/11/09 00:54:51;;;;;;;5.70;5.20;;;;;;;5.85;100.00;98983.80;109637;1251;73843;-69
2023/11/09 00:57:20;;;;;;;8.50;6.10;;;;;;;5.83;100.00;98985.41;109545;1251;67033;-69
2023/11/09 00:59:48;;;;;;;6.80;6.10;;;;;;;5.84;100.00;98984.42;109624;1251;72551;-69
2023/11/09 01:02:16;;;;;;;6.40;5.50;;;;;;;5.83;100.00;98984.14;109417;1251;58888;-69
2023/11/09 01:04:43;;;;;;;5.90;5.30;;;;;;;5.84;100.00;98987.07;109643;1253;58873;-69
2023/11/09 01:07:10;;;;;;;10.60;6.10;;;;;;;5.86;100.00;98988.27;109706;1251;73889;-69
2023/11/09 01:09:38;;;;;;;7.40;6.70;;;;;;;5.90;100.00;98987.52;109653;1251;67611;-69
2023/11/09 01:12:05;;;;;;;7.40;5.90;;;;;;;5.94;100.00;98984.84;109660;1250;72473;-69
2023/11/09 01:14:32;;;;;;;7.80;5.40;;;;;;;6.00;100.00;98987.55;109616;1251;61046;-69
2023/11/09 01:16:59;;;;;;;8.80;5.10;;;;;;;6.04;100.00;98988.18;109620;1251;58756;-69
2023/11/09 01:19:25;;;;;;;6.00;5.40;;;;;;;6.08;100.00;98989.80;109671;1251;73841;-69
2023/11/09 01:21:53;;;;;;;7.30;5.50;;;;;;;6.11;100.00;98989.82;109652;1256;67917;-69
2023/11/09 01:24:19;;;;;;;6.50;5.70;;;;;;;6.13;100.00;98986.80;109606;1251;72661;-69
2023/11/09 01:26:46;;;;;;;6.60;5.90;;;;;;;6.15;100.00;98985.16;109583;1251;59132;-69
2023/11/09 01:29:13;;;;;;;6.60;6.00;;;;;;;6.20;100.00;98983.81;109661;1250;58958;-70
2023/11/09 01:31:40;;;;;;;6.60;5.80;;;;;;;6.23;100.00;98982.48;109584;1250;74309;-69
2023/11/09 01:34:06;;;;;;;6.40;5.50;;;;;;;6.25;100.00;98986.48;109644;1253;67779;-70
2023/11/09 01:36:41;;;;;;;6.00;5.00;;;;;;;6.28;100.00;98988.98;109538;1250;72169;-69
2023/11/09 01:39:10;;;;;;;6.10;5.20;;;;;;;6.31;100.00;98989.36;109570;1251;60624;-70
2023/11/09 01:41:38;;;;;;;7.40;5.40;;;;;;;6.33;100.00;98989.90;109614;1251;58699;-69
2023/11/09 01:44:04;;;;;;;6.70;5.30;;;;;;;6.34;100.00;98993.30;109505;1250;73878;-69
2023/11/09 01:46:31;;;;;;;5.60;5.00;;;;;;;6.36;100.00;98997.39;109685;1251;66415;-70
2023/11/09 01:48:58;;;;;;;7.20;5.60;;;;;;;6.38;100.00;98996.58;109682;1251;71199;-70
2023/11/09 01:51:25;;;;;;;6.60;5.50;;;;;;;6.41;100.00;98997.55;109640;1251;62859;-70
2023/11/09 01:53:52;;;;;;;8.30;5.50;;;;;;;6.41;100.00;98998.61;109590;1251;59389;-70
2023/11/09 01:56:19;;;;;;;6.80;5.30;;;;;;;6.40;100.00;98997.42;109559;1250;73898;-70
2023/11/09 01:58:46;;;;;;;7.50;5.40;;;;;;;6.40;100.00;98998.17;109617;1251;67894;-69
2023/11/09 02:01:13;;;;;;;8.70;6.10;;;;;;;6.44;100.00;98997.93;109455;1251;71625;-69
2023/11/09 02:03:40;;;;;;;6.50;4.80;;;;;;;6.44;100.00;98999.36;109465;1251;60365;-69
2023/11/09 02:06:12;;;;;;;5.70;5.20;;;;;;;6.42;100.00;99002.13;109551;1251;58881;-69
2023/11/09 02:08:43;;;;;;;8.00;5.30;;;;;;;6.40;100.00;99003.06;109426;1251;72266;-69
2023/11/09 02:11:10;;;;;;;5.90;5.40;;;;;;;6.39;100.00;98998.11;109666;1251;67784;-68
2023/11/09 02:13:37;;;;;;;6.50;5.90;;;;;;;6.37;100.00;99001.59;109580;1254;73096;-69
2023/11/09 02:16:05;;;;;;;5.80;5.20;;;;;;;6.34;100.00;99010.39;109559;1251;58255;-69
2023/11/09 02:18:33;;;;;;;7.30;6.00;;;;;;;6.30;100.00;99019.41;109450;1251;60166;-68
2023/11/09 02:21:00;;;;;;;7.50;6.00;;;;;;;6.28;100.00;99018.27;109649;1249;73885;-69
2023/11/09 02:23:27;;;;;;;6.90;6.20;;;;;;;6.28;100.00;99019.86;109651;1251;67612;-68
2023/11/09 02:25:54;;;;;;;7.50;6.00;;;;;;;6.28;100.00;99022.77;109581;1251;72389;-69
2023/11/09 02:28:20;;;;;;;6.60;5.60;;;;;;;6.31;100.00;99025.69;109407;1251;60506;-68
2023/11/09 02:30:48;;;;;;;6.60;6.00;;;;;;;6.32;100.00;99026.84;109641;1251;59214;-68
2023/11/09 02:33:14;;;;;;;5.90;5.30;;;;;;;6.32;100.00;99029.98;109575;1251;72870;-68
2023/11/09 02:35:41;;;;;;;7.00;5.80;;;;;;;6.33;100.00;99031.25;109598;1251;66562;-68
2023/11/09 02:38:08;;;;;;;6.40;5.80;;;;;;;6.36;100.00;99032.59;109610;1251;70110;-69
2023/11/09 02:40:35;;;;;;;6.50;5.80;;;;;;;6.37;100.00;99035.51;109661;1251;60592;-69
2023/11/09 02:43:02;;;;;;;7.00;5.10;;;;;;;6.38;100.00;99041.67;109635;1251;60127;-69
2023/11/09 02:45:28;;;;;;;6.40;5.00;;;;;;;6.39;100.00;99044.05;109578;1253;74287;-68
2023/11/09 02:47:55;;;;;;;4.60;4.10;;;;;;;6.43;100.00;99043.64;109556;1251;65618;-68
2023/11/09 02:50:22;;;;;;;4.90;4.40;;;;;;;6.48;100.00;99039.61;109639;1251;70084;-68
2023/11/09 02:52:49;;;;;;;5.30;4.70;;;;;;;6.52;100.00;99037.09;109670;1250;60568;-68
2023/11/09 02:55:16;;;;;;;5.40;4.80;;;;;;;6.52;100.00;99038.42;109529;1251;58228;-68
2023/11/09 02:57:42;;;;;;;5.40;4.60;;;;;;;6.51;100.00;99036.46;109688;1250;72670;-69
2023/11/09 03:00:09;;;;;;;5.50;4.40;;;;;;;6.50;100.00;99035.66;109662;1251;67917;-68
2023/11/09 03:02:36;;;;;;;5.50;4.80;;;;;;;6.49;100.00;99033.11;109651;1251;71268;-68
2023/11/09 03:05:03;;;;;;;4.50;4.10;;;;;;;6.47;100.00;99032.84;109607;1251;58082;-68
2023/11/09 03:07:30;;;;;;;4.90;4.40;;;;;;;6.46;100.00;99030.82;109696;1251;59900;-68
2023/11/09 03:09:56;;;;;;;5.10;4.60;;;;;;;6.47;100.00;99031.48;109692;1251;73658;-68
2023/11/09 03:12:23;;;;;;;5.20;4.20;;;;;;;6.49;100.00;99034.38;109694;1250;67911;-68
2023/11/09 03:14:50;;;;;;;5.20;3.90;;;;;;;6.53;100.00;99042.23;109686;1251;72512;-68
2023/11/09 03:17:17;;;;;;;5.50;4.80;;;;;;;6.55;100.00;99046.10;109642;1251;58819;-68
2023/11/09 03:19:43;;;;;;;5.20;4.60;;;;;;;6.56;100.00;99054.44;109659;1251;58778;-68
2023/11/09 03:22:10;;;;;;;4.40;4.00;;;;;;;6.58;100.00;99056.04;109623;1251;71995;-68
2023/11/09 03:24:40;;;;;;;6.90;4.30;;;;;;;6.57;100.00;99053.98;109612;1251;66577;-68
2023/11/09 03:27:09;;;;;;;5.30;4.50;;;;;;;6.58;100.00;99057.10;109634;1251;72407;-68
2023/11/09 03:29:37;;;;;;;4.80;4.30;;;;;;;6.58;100.00;99054.13;109629;1251;61987;-68
2023/11/09 03:32:06;;;;;;;5.50;4.70;;;;;;;6.56;100.00;99054.24;109645;1251;58736;-69
2023/11/09 03:34:33;;;;;;;5.00;4.40;;;;;;;6.60;100.00;99055.46;109671;1251;72956;-68
2023/11/09 03:37:00;;;;;;;4.60;4.20;;;;;;;6.59;100.00;99047.09;109658;1251;66751;-69
2023/11/09 03:39:27;;;;;;;6.00;5.10;;;;;;;6.60;100.00;99047.02;109698;1251;71432;-68
2023/11/09 03:41:54;;;;;;;5.10;4.60;;;;;;;6.60;100.00;99044.73;109633;1251;60701;-69
2023/11/09 03:44:20;;;;;;;6.80;4.70;;;;;;;6.59;100.00;99044.77;109619;1251;60106;-69
2023/11/09 03:46:50;;;;;;;4.90;4.40;;;;;;;6.58;100.00;99044.57;109645;1251;73595;-69
2023/11/09 03:49:16;;;;;;;6.90;4.60;;;;;;;6.56;100.00;99045.78;109624;1251;67796;-68
2023/11/09 03:51:43;;;;;;;6.90;4.10;;;;;;;6.53;100.00;99046.95;109640;1251;71528;-69
2023/11/09 03:54:10;;;;;;;5.70;4.70;;;;;;;6.51;100.00;99044.35;109530;1254;61773;-68
2023/11/09 03:56:36;;;;;;;4.80;4.30;;;;;;;6.50;100.00;99047.65;109608;1251;60152;-68
2023/11/09 03:59:03;;;;;;;5.00;4.50;;;;;;;6.49;100.00;99048.96;109672;1251;73658;-68
2023/11/09 04:01:30;;;;;;;4.60;4.10;;;;;;;6.48;100.00;99046.36;109657;1251;67740;-68
2023/11/09 04:03:56;;;;;;;5.00;4.50;;;;;;;6.47;100.00;99049.17;109651;1251;71133;-68
2023/11/09 04:06:23;;;;;;;6.00;5.10;;;;;;;6.47;100.00;99057.37;109650;1251;61852;-68
2023/11/09 04:08:51;;;;;;;5.80;4.80;;;;;;;6.45;100.00;99054.16;109633;1251;58739;-68
2023/11/09 04:11:17;;;;;;;7.30;5.30;;;;;;;6.42;100.00;99054.48;109685;1251;73833;-68
2023/11/09 04:13:45;;;;;;;7.80;6.30;;;;;;;6.39;100.00;99053.07;109625;1251;66646;-68
2023/11/09 04:16:11;;;;;;;10.90;8.50;;;;;;;6.37;100.00;99057.77;109680;1250;71494;-68
2023/11/09 04:18:38;;;;;;;10.00;8.30;;;;;;;6.38;100.00;99059.30;109623;1249;61951;-69
2023/11/09 04:21:05;;;;;;;14.70;11.00;;;;;;;6.40;100.00;99059.10;109699;1250;60203;-69
2023/11/09 04:23:31;;;;;;;13.80;10.00;;;;;;;6.42;100.00;99060.84;109684;1251;72359;-69
2023/11/09 04:25:58;;;;;;;13.90;10.60;;;;;;;6.42;100.00;99059.39;109680;1250;58099;-69
2023/11/09 04:28:24;;;;;;;18.80;13.20;;;;;;;6.44;100.00;99067.85;109600;1251;72650;-69
2023/11/09 04:30:51;;;;;;;10.80;9.30;;;;;;;6.43;100.00;99070.10;109657;1251;61753;-69
2023/11/09 04:33:19;;;;;;;10.50;8.50;;;;;;;6.40;100.00;99066.33;109650;1251;61664;-69
2023/11/09 04:35:46;;;;;;;8.00;7.20;;;;;;;6.38;100.00;99066.55;109642;1251;73694;-70
2023/11/09 04:38:15;;;;;;;9.80;7.70;;;;;;;6.37;100.00;99072.65;109582;1250;66739;-71
2023/11/09 04:40:44;;;;;;;7.00;6.40;;;;;;;6.36;100.00;99069.91;109621;1250;72586;-70
2023/11/09 04:43:11;;;;;;;7.60;5.50;;;;;;;6.36;100.00;99069.41;109505;1249;60789;-68
2023/11/09 04:45:42;;;;;;;5.30;4.80;;;;;;;6.36;100.00;99069.39;109634;1250;58782;-68
2023/11/09 04:48:19;;;;;;;5.60;5.10;;;;;;;6.35;100.00;99071.81;109667;1251;72260;-68
2023/11/09 04:50:55;;;;;;;6.10;5.00;;;;;;;6.33;100.00;99074.22;109663;1251;67825;-68
2023/11/09 04:53:30;;;;;;;5.90;5.30;;;;;;;6.34;100.00;99077.52;109682;1250;72511;-68
2023/11/09 04:56:07;;;;;;;6.40;5.70;;;;;;;6.37;100.00;99083.95;109614;1251;60741;-68
2023/11/09 04:58:51;;;;;;;8.70;6.20;;;;;;;6.40;100.00;99079.07;109628;1251;59387;-69
2023/11/09 05:06:55;;;;;;;6.50;5.90;;;;;;;6.49;100.00;99077.77;109662;1251;72522;-68
2023/11/09 05:09:23;;;;;;;7.40;6.60;;;;;;;6.50;100.00;99079.54;109609;1250;59056;-68
2023/11/09 05:11:51;;;;;;;8.40;6.10;;;;;;;6.48;100.00;99074.00;109635;1251;60216;-69
2023/11/09 05:14:17;;;;;;;7.10;6.30;;;;;;;6.48;100.00;99081.34;109707;1250;73425;-69
2023/11/09 05:16:44;;;;;;;7.40;6.50;;;;;;;6.47;100.00;99087.20;109628;1250;66523;-70
2023/11/09 05:19:12;;;;;;;6.70;5.90;;;;;;;6.47;100.00;99095.69;109633;1251;71660;-68
2023/11/09 05:21:42;;;;;;;7.50;5.90;;;;;;;6.48;100.00;99098.09;109556;1251;60734;-65
2023/11/09 05:24:08;;;;;;;6.50;5.40;;;;;;;6.51;100.00;99106.79;109677;1250;59069;-69
2023/11/09 05:26:35;;;;;;;8.00;5.80;;;;;;;6.53;100.00;99103.20;109617;1250;73513;-68
2023/11/09 05:29:04;;;;;;;6.90;5.80;;;;;;;6.55;100.00;99106.02;109599;1250;66797;-69
2023/11/09 05:31:34;;;;;;;8.10;6.20;;;;;;;6.57;100.00;99116.23;109551;1251;72471;-69
2023/11/09 05:34:01;;;;;;;6.30;5.70;;;;;;;6.61;100.00;99120.23;109637;1251;61747;-67
2023/11/09 05:36:27;;;;;;;6.90;5.70;;;;;;;6.64;100.00;99123.91;109663;1250;61727;-68
2023/11/09 05:38:55;;;;;;;8.00;6.80;;;;;;;6.67;100.00;99126.63;109675;1250;58223;-68
2023/11/09 05:41:22;;;;;;;10.00;7.30;;;;;;;6.68;100.00;99130.05;109661;1250;67642;-66
2023/11/09 05:43:48;;;;;;;7.90;7.10;;;;;;;6.69;100.00;99131.55;109635;1250;71774;-67
2023/11/09 05:46:15;;;;;;;9.10;7.40;;;;;;;6.70;100.00;99134.42;109629;1250;60487;-65
2023/11/09 05:48:42;;;;;;;9.70;7.40;;;;;;;6.71;100.00;99135.95;109607;1250;58215;-67
2023/11/09 05:51:09;;;;;;;7.80;6.50;;;;;;;6.71;100.00;99131.64;109635;1250;74784;-66
2023/11/09 05:53:35;;;;;;;6.80;6.10;;;;;;;6.73;100.00;99132.06;109653;1250;66647;-65
2023/11/09 05:56:03;;;;;;;9.20;6.30;;;;;;;6.74;100.00;99136.82;109574;1250;70174;-65
2023/11/09 05:58:29;;;;;;;7.20;6.40;;;;;;;6.75;100.00;99135.84;109600;1251;60424;-67
2023/11/09 06:00:56;;;;;;;6.80;6.20;;;;;;;6.76;100.00;99138.36;109661;1250;58204;-66
2023/11/09 06:03:22;;;;;;;7.50;6.00;;;;;;;6.78;100.00;99142.91;109629;1251;58240;-63
2023/11/09 06:05:50;;;;;;;8.50;7.40;;;;;;;6.82;100.00;99143.73;109601;1251;66958;-66
2023/11/09 06:08:19;;;;;;;7.10;6.40;;;;;;;6.86;100.00;99144.79;109609;1250;72409;-68
2023/11/09 06:10:47;;;;;;;7.40;6.70;;;;;;;6.89;100.00;99144.51;109591;1251;61867;-65
2023/11/09 06:13:14;;;;;;;7.80;7.00;;;;;;;6.92;100.00;99150.05;109546;1251;60100;-64
2023/11/09 06:15:41;;;;;;;7.50;6.30;;;;;;;6.93;100.00;99151.29;109673;1250;58327;-64
2023/11/09 06:18:09;;;;;;;7.70;7.00;;;;;;;6.96;100.00;99151.40;109632;1250;67859;-66
2023/11/09 06:20:38;;;;;;;8.20;7.30;;;;;;;6.99;100.00;99155.80;109696;1250;71642;-65
2023/11/09 06:23:04;;;;;;;7.50;6.80;;;;;;;7.04;100.00;99158.30;109660;1250;59440;-70
2023/11/09 06:25:31;;;;;;;7.40;6.60;;;;;;;7.10;100.00;99160.35;109696;1250;58796;-67
2023/11/09 06:27:58;;;;;;;8.70;7.10;;;;;;;7.15;100.00;99164.19;109671;1250;73854;-68
2023/11/09 06:30:27;;;;;;;7.90;6.90;;;;;;;7.19;100.00;99164.34;109451;1250;67945;-67
2023/11/09 06:32:53;;;;;;;7.60;6.80;;;;;;;7.21;100.00;99163.01;109464;1251;72997;-67
2023/11/09 06:35:20;;;;;;;8.60;7.00;;;;;;;7.23;100.00;99166.52;109553;1251;62029;-67
2023/11/09 06:37:47;;;;;;;8.10;7.00;;;;;;;7.27;100.00;99171.40;109464;1251;60237;-68
2023/11/09 06:40:16;;;;;;;8.10;7.30;;;;;;;7.31;100.00;99169.77;109602;1251;72403;-68
2023/11/09 06:42:43;;;;;;;9.40;8.20;;;;;;;7.34;100.00;99171.38;109478;1251;68271;-67
2023/11/09 06:45:10;;;;;;;13.20;8.10;;;;;;;7.38;100.00;99169.89;109487;1251;71140;-68
2023/11/09 06:47:38;;;;;;;10.10;9.20;;;;;;;7.42;100.00;99174.06;109468;1250;60985;-68
2023/11/09 06:50:12;;;;;;;11.60;9.80;;;;;;;7.46;100.00;99175.04;109506;1254;60681;-68
2023/11/09 06:52:42;;;;;;;8.80;7.50;;;;;;;7.50;100.00;99175.56;109478;1251;73598;-68
2023/11/09 06:55:09;;;;;;;8.00;7.20;;;;;;;7.54;100.00;99175.38;109526;1250;67681;-68
2023/11/09 06:57:42;;;;;;;8.10;7.20;;;;;;;7.56;100.00;99178.97;109621;1251;72373;-68
2023/11/09 07:00:10;;;;;;;8.80;7.70;;;;;;;7.60;100.00;99182.89;109645;1250;62004;-67
2023/11/09 07:02:43;;;;;;;8.30;7.60;;;;;;;7.62;100.00;99183.33;109644;1250;58937;-68
2023/11/09 07:05:10;;;;;;;10.90;7.10;;;;;;;7.64;100.00;99180.45;109592;1250;73598;-67
2023/11/09 07:07:40;;;;;;;9.00;7.20;;;;;;;7.70;100.00;99185.34;109681;1250;68108;-68
2023/11/09 07:10:08;;;;;;;8.90;7.80;;;;;;;7.77;100.00;99189.69;109646;1251;71156;-67
2023/11/09 07:12:35;;;;;;;8.80;7.80;;;;;;;7.84;100.00;99194.23;109624;1250;60249;-67
2023/11/09 07:15:02;;;;;;;9.00;8.20;;;;;;;7.87;100.00;99194.95;109582;1250;60344;-68
2023/11/09 07:17:29;;;;;;;9.80;8.60;;;;;;;7.89;100.00;99196.36;109609;1251;74056;-67
2023/11/09 07:19:57;;;;;;;12.50;8.00;;;;;;;7.91;100.00;99200.61;109700;1250;67003;-67
2023/11/09 07:22:24;;;;;;;10.10;8.10;;;;;;;7.92;100.00;99201.14;109639;1250;71258;-68
2023/11/09 07:24:53;;;;;;;8.50;7.60;;;;;;;7.95;100.00;99202.46;109586;1251;60858;-68
2023/11/09 07:27:34;;;;;;;9.00;8.00;;;;;;;7.97;100.00;99206.28;109478;1250;60305;-68
2023/11/09 07:30:01;;;;;;;9.20;8.10;;;;;;;7.99;100.00;99209.59;109656;1250;73660;-68
2023/11/09 07:32:28;;;;;;;10.20;8.90;;;;;;;8.01;100.00;99202.27;109692;1251;67675;-68
2023/11/09 07:34:55;;;;;;;8.90;8.00;;;;;;;8.01;100.00;99204.93;109564;1251;72763;-67
2023/11/09 07:37:21;;;;;;;8.60;7.30;;;;;;;8.02;100.00;99211.94;109618;1250;61840;-67
2023/11/09 07:39:48;;;;;;;8.50;7.50;;;;;;;8.03;100.00;99210.70;109650;1250;58029;-67
2023/11/09 07:42:14;;;;;;;11.40;7.70;;;;;;;8.08;100.00;99211.84;109661;1250;58280;-68
2023/11/09 07:44:41;;;;;;;10.50;8.90;;;;;;;8.11;100.00;99213.98;109643;1250;66656;-68
2023/11/09 07:47:08;;;;;;;9.40;8.50;;;;;;;8.15;100.00;99213.95;109574;1250;70265;-68
2023/11/09 07:49:35;;;;;;;11.50;9.10;;;;;;;8.18;100.00;99217.52;109680;1250;58786;-68
2023/11/09 07:52:03;;;;;;;9.30;8.40;;;;;;;8.20;100.00;99219.96;109661;1250;58474;-67
2023/11/09 07:54:30;;;;;;;9.20;8.30;;;;;;;8.22;100.00;99221.33;109642;1250;74412;-68
2023/11/09 07:57:01;;;;;;;11.10;7.80;;;;;;;8.25;100.00;99220.11;109609;1251;66801;-68
2023/11/09 07:59:27;;;;;;;9.50;8.50;;;;;;;8.27;100.00;99217.95;109651;1251;72496;-68
2023/11/09 08:01:55;;;;;;;8.20;7.40;;;;;;;8.28;100.00;99219.59;109642;1251;61692;-68
2023/11/09 08:04:27;;;;;;;10.00;8.00;;;;;;;8.32;100.00;99220.20;109631;1251;58058;-68
2023/11/09 08:06:54;;;;;;;12.60;9.40;;;;;;;8.39;100.00;99224.26;109655;1250;72658;-68
2023/11/09 08:09:21;;;;;;;13.50;9.60;;;;;;;8.45;100.00;99225.59;109695;1250;67783;-69
2023/11/09 08:11:48;;;;;;;15.90;10.10;;;;;;;8.49;100.00;99227.81;109675;1250;72454;-68
2023/11/09 08:14:14;;;;;;;11.00;9.10;;;;;;;8.52;100.00;99227.42;109607;1251;60430;-68
2023/11/09 08:16:41;;;;;;;13.30;10.40;;;;;;;8.55;100.00;99231.15;109581;1251;58126;-68
2023/11/09 08:19:08;;;;;;;13.30;10.60;;;;;;;8.58;100.00;99226.98;109639;1251;72535;-68
2023/11/09 08:21:36;;;;;;;13.40;9.50;;;;;;;8.58;100.00;99225.91;109681;1250;66896;-68
2023/11/09 08:24:02;;;;;;;10.70;9.70;;;;;;;8.58;100.00;99224.71;109651;1250;72374;-69
2023/11/09 08:26:29;;;;;;;9.30;8.40;;;;;;;8.61;100.00;99226.08;109631;1250;59346;-69
2023/11/09 08:28:57;;;;;;;10.50;9.30;;;;;;;8.65;100.00;99227.25;109641;1251;60217;-69
2023/11/09 08:31:25;;;;;;;10.10;9.10;;;;;;;8.70;100.00;99230.47;109624;1250;73548;-69
2023/11/09 08:33:54;;;;;;;10.50;9.10;;;;;;;8.79;100.00;99234.15;109663;1250;66972;-69
2023/11/09 08:36:21;;;;;;;10.20;9.30;;;;;;;8.86;100.00;99226.84;109671;1251;71232;-69
2023/11/09 08:38:48;;;;;;;10.10;9.10;;;;;;;8.95;100.00;99229.17;109684;1250;59168;-69
2023/11/09 08:41:15;;;;;;;11.00;9.40;;;;;;;9.07;100.00;99226.08;109674;1250;58208;-69
2023/11/09 08:43:42;;;;;;;10.70;9.80;;;;;;;9.20;100.00;99227.25;109661;1250;74084;-67
2023/11/09 08:46:09;;;;;;;9.80;8.80;;;;;;;9.29;100.00;99225.77;109623;1250;66678;-69
2023/11/09 08:48:40;;;;;;;11.20;9.70;;;;;;;9.37;100.00;99226.10;109647;1250;72891;-67
2023/11/09 08:51:10;;;;;;;9.90;8.90;;;;;;;9.48;100.00;99223.13;109643;1251;60535;-68
2023/11/09 08:53:36;;;;;;;8.90;8.00;;;;;;;9.60;100.00;99225.29;109666;1250;59542;-68
2023/11/09 08:56:05;;;;;;;11.30;8.90;;;;;;;9.74;100.00;99220.50;109609;1250;73702;-67
2023/11/09 08:58:37;;;;;;;11.50;10.50;;;;;;;9.88;100.00;99221.98;109664;1250;66627;-68
2023/11/09 09:01:06;;;;;;;11.60;9.50;;;;;;;10.01;100.00;99223.75;109537;1250;71451;-67
2023/11/09 09:03:33;;;;;;;12.60;10.50;;;;;;;10.08;100.00;99224.52;109630;1250;60692;-68
2023/11/09 09:06:00;;;;;;;10.50;9.50;;;;;;;10.11;100.00;99230.92;109642;1250;58875;-68
2023/11/09 09:08:27;;;;;;;10.40;9.40;;;;;;;10.06;100.00;99226.55;109646;1251;73790;-68
2023/11/09 09:10:56;;;;;;;11.70;9.20;;;;;;;10.02;100.00;99232.28;109572;1251;67987;-67
2023/11/09 09:13:23;;;;;;;10.60;9.50;;;;;;;10.00;100.00;99230.92;109648;1251;71010;-68
2023/11/09 09:15:49;;;;;;;10.80;9.50;;;;;;;10.02;100.00;99224.71;109557;1250;60282;-68
2023/11/09 09:18:16;;;;;;;13.00;9.80;;;;;;;10.00;100.00;99222.68;109635;1250;60001;-68
2023/11/09 09:20:43;;;;;;;11.10;9.80;;;;;;;9.97;100.00;99225.02;109689;1250;73758;-67
2023/11/09 09:23:10;;;;;;;10.90;9.60;;;;;;;9.94;100.00;99226.94;109630;1253;68372;-68
2023/11/09 09:25:38;;;;;;;11.80;10.60;;;;;;;9.95;100.00;99225.81;109658;1251;72563;-68
2023/11/09 09:28:09;;;;;;;9.60;8.60;;;;;;;9.96;100.00;99229.59;109566;1250;60664;-68
2023/11/09 09:30:36;;;;;;;9.60;8.60;;;;;;;9.98;100.00;99230.23;109613;1250;58917;-68
2023/11/09 09:33:03;;;;;;;14.60;8.90;;;;;;;10.05;100.00;99230.84;109680;1250;73647;-68
2023/11/09 09:35:32;;;;;;;11.10;9.80;;;;;;;10.16;100.00;99228.55;109686;1251;66060;-68
2023/11/09 09:38:11;;;;;;;12.40;10.20;;;;;;;10.27;100.00;99230.51;109599;1251;71362;-68
2023/11/09 09:40:38;;;;;;;15.70;11.70;;;;;;;10.37;100.00;99232.10;109602;1250;59246;-68
2023/11/09 09:43:18;;;;;;;12.60;11.30;;;;;;;10.44;100.00;99232.77;109618;1251;58905;-68
2023/11/09 09:45:46;;;;;;;12.50;11.10;;;;;;;10.46;100.00;99230.59;109640;1251;72781;-68
2023/11/09 09:48:13;;;;;;;13.80;11.30;;;;;;;10.48;100.00;99229.27;109615;1251;66535;-68
2023/11/09 09:50:42;;;;;;;11.80;10.50;;;;;;;10.47;100.00;99223.30;109596;1250;72963;-68
2023/11/09 09:53:08;;;;;;;13.40;10.10;;;;;;;10.51;100.00;99220.95;109515;1250;160211;-68
2023/11/09 09:55:36;;;;;;;11.60;10.00;;;;;;;10.63;100.00;99224.37;109618;1250;58878;-68
2023/11/09 09:58:05;;;;;;;11.10;10.10;;;;;;;10.75;100.00;99221.66;109669;1251;73896;-68
2023/11/09 10:00:32;;;;;;;15.10;10.10;;;;;;;10.89;100.00;99219.48;109719;1250;66805;-68
2023/11/09 10:03:00;;;;;;;11.10;10.00;;;;;;;11.03;100.00;99217.17;109703;1251;72516;-68
2023/11/09 10:05:27;;;;;;;10.90;9.80;;;;;;;11.12;100.00;99213.92;109594;1251;58746;-68
2023/11/09 10:08:07;;;;;;;11.10;10.00;;;;;;;11.19;100.00;99217.07;109604;1251;58994;-68
2023/11/09 10:10:38;;;;;;;10.80;9.70;;;;;;;11.37;100.00;99220.77;109619;1251;72364;-68
2023/11/09 10:13:14;;;;;;;9.90;8.90;;;;;;;11.63;100.00;99219.69;109622;1251;67920;-67
2023/11/09 10:15:43;;;;;;;10.90;9.70;;;;;;;11.82;100.00;99211.79;109570;1251;71517;-68
2023/11/09 10:18:12;;;;;;;13.40;10.30;;;;;;;12.01;100.00;99206.20;109636;1250;59052;-68
2023/11/09 10:20:40;;;;;;;11.70;10.60;;;;;;;12.14;100.00;99201.29;109595;1251;60030;-68
2023/11/09 10:23:11;;;;;;;10.50;8.90;;;;;;;12.19;100.00;99194.38;109657;1251;72992;-68
2023/11/09 10:25:38;;;;;;;13.10;9.70;;;;;;;12.16;100.00;99193.73;109584;1250;66716;-68
2023/11/09 10:28:07;;;;;;;13.80;8.50;;;;;;;12.19;100.00;99196.38;109408;1251;71592;-68
2023/11/09 10:30:37;;;;;;;10.10;9.00;;;;;;;12.26;100.00;99193.75;109543;1251;59008;-68
2023/11/09 10:33:08;;;;;;;13.10;8.90;;;;;;;12.38;100.00;99191.68;109610;1250;60388;-68
2023/11/09 10:35:37;;;;;;;9.20;8.10;;;;;;;12.52;100.00;99193.68;109680;1250;72569;-68
2023/11/09 10:38:12;;;;;;;9.10;8.10;;;;;;;12.54;100.00;99189.52;109657;1250;66706;-68
2023/11/09 10:40:42;;;;;;;8.70;7.60;;;;;;;12.46;100.00;99187.73;109667;1250;71655;-68
2023/11/09 10:43:33;;;;;;;9.20;8.20;;;;;;;12.31;100.00;99189.88;109592;1251;59131;-68
2023/11/09 10:46:02;;;;;;;9.60;8.20;;;;;;;12.16;100.00;99190.11;109604;1250;60312;-68
2023/11/09 10:48:32;;;;;;;8.80;7.90;;;;;;;12.14;100.00;99192.14;109466;1251;71468;-68
2023/11/09 10:50:58;;;;;;;9.60;8.20;;;;;;;12.24;100.00;99191.23;109489;1253;68030;-68
2023/11/09 10:53:28;;;;;;;14.00;7.90;;;;;;;12.38;100.00;99191.95;109603;1251;58610;-68
2023/11/09 10:55:59;;;;;;;8.80;7.90;;;;;;;12.49;100.00;99191.66;109430;1250;62247;-68
2023/11/09 10:58:33;;;;;;;7.50;6.80;;;;;;;12.59;100.00;99189.63;109467;1251;60771;-68
2023/11/09 11:01:00;;;;;;;9.60;6.80;;;;;;;12.70;100.00;99190.39;109475;1254;72324;-68
2023/11/09 11:03:38;;;;;;;8.70;6.90;;;;;;;12.79;100.00;99192.05;109551;1251;67610;-68
2023/11/09 11:06:09;;;;;;;10.10;7.80;;;;;;;12.82;100.00;99192.20;109617;1251;72304;-68
2023/11/09 11:08:40;;;;;;;9.60;6.70;;;;;;;12.84;100.00;99193.09;109615;1250;60421;-68
2023/11/09 11:11:30;;;;;;;8.10;7.30;;;;;;;12.80;100.00;99191.73;109647;1251;58892;-68
2023/11/09 11:14:03;;;;;;;8.30;7.10;;;;;;;12.66;100.00;99191.64;109608;1250;73796;-68
2023/11/09 11:16:49;;;;;;;8.80;7.40;;;;;;;12.49;100.00;99192.86;109708;1251;67896;-68
2023/11/09 11:19:53;;;;;;;7.80;7.00;;;;;;;12.42;100.00;99191.73;109667;1250;71445;-68
2023/11/09 11:22:22;;;;;;;8.00;7.20;;;;;;;12.30;100.00;99193.15;109596;1250;59509;-68
2023/11/09 11:25:35;;;;;;;9.90;7.00;;;;;;;12.20;100.00;99190.23;109693;1250;60295;-68
2023/11/09 11:28:03;;;;;;;7.20;6.50;;;;;;;12.05;100.00;99193.14;109538;1250;71526;-68
2023/11/09 11:30:33;;;;;;;8.10;6.70;;;;;;;11.95;100.00;99191.49;109680;1250;67929;-68
2023/11/09 11:33:01;;;;;;;8.10;7.00;;;;;;;11.81;100.00;99188.43;109606;1251;72657;-68